臺北終端管制區 - 桃園五邊雷達席

METAR RCTP 181200Z 06016KT 9999 FEW015 BKN024 14/11 Q1021 NOSIG RMK A3015=

站台狀態:Online
最後更新:2020-01-18 20:15:01